Time;durP1;ratioP1;P1;durP2;ratioP2;P2;SDS_P1;SDS_P2;PMS_P1;PMS_P2;Temp;Humidity;BMP_temperature;BMP_pressure;BME280_temperature;BME280_humidity;BME280_pressure;Samples;Min_cycle;Max_cycle;Signal;HPM_P1;HPM_P2
2021/10/03 00:02:28;;;;;;;;;;;15.20;99.90;;;;;;4974882;28;19959;-86
2021/10/03 00:04:57;;;;;;;;;;;15.20;99.90;;;;;;4973813;28;19975;-86
2021/10/03 00:07:27;;;;;;;;;;;15.20;99.90;;;;;;4974735;28;19955;-87
2021/10/03 00:09:54;;;;;;;;;;;16.00;99.90;;;;;;4975447;28;19954;-86
2021/10/03 00:12:22;;;;;;;;;;;15.20;99.90;;;;;;4978468;28;19955;-86
2021/10/03 00:14:50;;;;;;;;;;;15.10;99.90;;;;;;4993766;28;20376;-87
2021/10/03 00:17:16;;;;;;;;;;;15.20;99.90;;;;;;4982156;28;19948;-87
2021/10/03 00:19:45;;;;;;;;;;;15.20;99.90;;;;;;4975472;28;19955;-87
2021/10/03 00:22:13;;;;;;;;;;;15.20;99.90;;;;;;4974971;28;19998;-87
2021/10/03 00:24:40;;;;;;;;;;;15.20;99.90;;;;;;4974237;28;19964;-87
2021/10/03 00:27:06;;;;;;;;;;;15.20;99.90;;;;;;4978779;28;19957;-87
2021/10/03 00:29:34;;;;;;;;;;;15.20;99.90;;;;;;4995733;28;19939;-87
2021/10/03 00:32:02;;;;;;;;;;;15.20;99.90;;;;;;4976788;28;20423;-87
2021/10/03 00:34:29;;;;;;;;;;;15.30;99.90;;;;;;4974510;28;19965;-87
2021/10/03 00:36:55;;;;;;;;;;;15.20;99.90;;;;;;4978545;28;20136;-86
2021/10/03 00:39:23;;;;;;;;;;;14.80;99.90;;;;;;4978370;28;19949;-87
2021/10/03 00:41:50;;;;;;;;;;;15.20;99.90;;;;;;4984747;28;20033;-87
2021/10/03 00:44:22;;;;;;;;;;;15.20;99.90;;;;;;4984768;28;19956;-87
2021/10/03 00:46:51;;;;;;;;;;;15.30;99.90;;;;;;4989317;28;19981;-86
2021/10/03 00:49:18;;;;;;;;;;;15.30;99.90;;;;;;4978636;28;19950;-86
2021/10/03 00:51:48;;;;;;;;;;;15.00;99.90;;;;;;4977836;28;20063;-87
2021/10/03 00:54:20;;;;;;;;;;;15.00;99.90;;;;;;4977881;28;19953;-87
2021/10/03 00:56:51;;;;;;;;;;;15.30;99.90;;;;;;4977665;28;19943;-87
2021/10/03 00:59:21;;;;;;;;;;;14.50;99.90;;;;;;4986534;28;19937;-87
2021/10/03 01:01:47;;;;;;;;;;;15.20;99.90;;;;;;4992944;28;19950;-87
2021/10/03 01:04:41;;;;;;;;;;;18.10;99.90;;;;;;4996438;28;19957;-87
2021/10/03 01:07:09;;;;;;;;;;;15.20;99.90;;;;;;5009563;28;19939;-88
2021/10/03 01:09:36;;;;;;;;;;;15.10;99.90;;;;;;4988221;28;19953;-88
2021/10/03 01:12:05;;;;;;;;;;;15.20;99.90;;;;;;4980446;28;20405;-87
2021/10/03 01:14:31;;;;;;;;;;;15.80;99.90;;;;;;4980446;28;19978;-88
2021/10/03 01:16:58;;;;;;;;;;;15.10;99.90;;;;;;4977957;28;20004;-88
2021/10/03 01:19:24;;;;;;;;;;;15.10;99.90;;;;;;4977907;28;19953;-87
2021/10/03 01:21:52;;;;;;;;;;;15.00;99.90;;;;;;4978385;28;19959;-88
2021/10/03 01:24:20;;;;;;;;;;;14.70;99.90;;;;;;4990376;28;19981;-87
2021/10/03 01:26:46;;;;;;;;;;;15.00;99.90;;;;;;4993761;28;19961;-88
2021/10/03 01:29:13;;;;;;;;;;;15.10;99.90;;;;;;4995877;28;19933;-86
2021/10/03 01:31:40;;;;;;;;;;;15.10;99.90;;;;;;4998144;28;19947;-87
2021/10/03 01:34:06;;;;;;;;;;;15.00;99.90;;;;;;4998541;28;19940;-86
2021/10/03 01:36:33;;;;;;;;;;;15.10;99.90;;;;;;4998349;28;19961;-87
2021/10/03 01:42:22;;;;;;;;;;;15.00;99.90;;;;;;4993979;28;19954;-91
2021/10/03 01:45:01;;;;;;;;;;;15.50;99.90;;;;;;4996963;28;19972;-91
2021/10/03 01:47:37;;;;;;;;;;;15.50;99.90;;;;;;4993874;28;20410;-91
2021/10/03 01:56:11;;;;;;;;;;;14.80;99.90;;;;;;4978881;28;19973;-91
2021/10/03 01:58:54;;;;;;;;;;;15.40;99.90;;;;;;4976948;28;19957;-91
2021/10/03 02:07:19;;;;;;;;;;;15.80;99.90;;;;;;4981611;28;19988;-91
2021/10/03 02:15:42;;;;;;;;;;;14.90;99.90;;;;;;4978996;28;19959;-91
2021/10/03 02:23:56;;;;;;;;;;;17.10;99.90;;;;;;4978861;28;20000;-91
2021/10/03 02:26:33;;;;;;;;;;;;;;;;;;;;;
2021/10/03 02:29:01;;;;;;;;;;;15.40;99.90;;;;;;4975865;28;19947;-90
2021/10/03 02:37:02;;;;;;;;;;;17.80;99.90;;;;;;4978317;28;20001;-90
2021/10/03 02:39:38;;;;;;;;;;;14.80;99.90;;;;;;4982449;28;19959;-90
2021/10/03 02:42:17;;;;;;;;;;;13.80;99.90;;;;;;4984022;28;19950;-90
2021/10/03 02:51:14;;;;;;;;;;;;;;;;;;;;;
2021/10/03 02:54:03;;;;;;;;;;;15.20;99.90;;;;;;4975544;28;19957;-91
2021/10/03 02:56:44;;;;;;;;;;;15.00;99.90;;;;;;4978240;28;20007;-91
2021/10/03 02:59:32;;;;;;;;;;;17.90;99.90;;;;;;4976130;28;20061;-91
2021/10/03 03:05:13;;;;;;;;;;;16.10;99.90;;;;;;4981916;28;20323;-90
2021/10/03 03:08:02;;;;;;;;;;;14.70;99.90;;;;;;4976300;28;19954;-90
2021/10/03 03:10:40;;;;;;;;;;;17.30;99.90;;;;;;4996753;28;19928;-91
2021/10/03 03:13:15;;;;;;;;;;;14.30;99.90;;;;;;4996651;28;19978;-92
2021/10/03 03:15:57;;;;;;;;;;;;;;;;;;;;;
2021/10/03 03:18:37;;;;;;;;;;;15.10;99.90;;;;;;4996899;28;19938;-91
2021/10/03 03:48:23;;;;;;;;;;;14.70;99.90;;;;;;5024148;23;19971;-90
2021/10/03 04:00:20;;;;;;;;;;;16.30;99.90;;;;;;5029748;22;19963;-85
2021/10/03 04:02:46;;;;;;;;;;;14.70;99.90;;;;;;4999553;28;20314;-85
2021/10/03 04:05:13;;;;;;;;;;;14.70;99.90;;;;;;4999948;28;20425;-86
2021/10/03 04:07:41;;;;;;;;;;;14.70;99.90;;;;;;4999960;28;19956;-86
2021/10/03 04:10:07;;;;;;;;;;;14.60;99.90;;;;;;5001096;28;20022;-85
2021/10/03 04:12:35;;;;;;;;;;;14.70;99.90;;;;;;5014134;28;19971;-84
2021/10/03 04:15:01;;;;;;;;;;;14.70;99.90;;;;;;5013301;28;20435;-85
2021/10/03 04:17:28;;;;;;;;;;;14.70;99.90;;;;;;5012106;28;19950;-83
2021/10/03 04:19:54;;;;;;;;;;;14.60;99.90;;;;;;5006288;28;19972;-86
2021/10/03 04:22:20;;;;;;;;;;;14.60;99.90;;;;;;5007597;28;19954;-85
2021/10/03 04:24:49;;;;;;;;;;;14.60;99.90;;;;;;5007617;28;19947;-85
2021/10/03 04:27:16;;;;;;;;;;;14.60;99.90;;;;;;5004911;28;19950;-86
2021/10/03 04:29:42;;;;;;;;;;;14.60;99.90;;;;;;5003641;28;19966;-86
2021/10/03 04:32:09;;;;;;;;;;;14.60;99.90;;;;;;5008630;28;19968;-86
2021/10/03 04:34:35;;;;;;;;;;;14.60;99.90;;;;;;5015455;28;19954;-86
2021/10/03 04:37:02;;;;;;;;;;;14.60;99.90;;;;;;5017950;28;19944;-86
2021/10/03 04:39:31;;;;;;;;;;;14.60;99.90;;;;;;5018853;28;19965;-85
2021/10/03 04:41:59;;;;;;;;;;;14.60;99.90;;;;;;5015506;28;19959;-85
2021/10/03 04:44:26;;;;;;;;;;;14.60;99.90;;;;;;5004354;28;19949;-86
2021/10/03 04:46:52;;;;;;;;;;;14.60;99.90;;;;;;5001288;28;19994;-86
2021/10/03 04:49:19;;;;;;;;;;;14.60;99.90;;;;;;5002077;28;19965;-86
2021/10/03 04:51:45;;;;;;;;;;;14.60;99.90;;;;;;5006666;28;19957;-84
2021/10/03 04:54:12;;;;;;;;;;;14.60;99.90;;;;;;5007185;28;19950;-85
2021/10/03 04:56:38;;;;;;;;;;;14.60;99.90;;;;;;5006389;28;19974;-85
2021/10/03 04:59:06;;;;;;;;;;;14.60;99.90;;;;;;5002616;28;19945;-85
2021/10/03 05:01:32;;;;;;;;;;;14.60;99.90;;;;;;5002562;28;19945;-85
2021/10/03 05:03:59;;;;;;;;;;;14.50;99.90;;;;;;5008783;28;19945;-85
2021/10/03 05:06:26;;;;;;;;;;;14.70;99.90;;;;;;5013503;28;19959;-85
2021/10/03 05:08:53;;;;;;;;;;;14.60;99.90;;;;;;5011922;28;19966;-85
2021/10/03 05:11:19;;;;;;;;;;;14.60;99.90;;;;;;5009235;28;20017;-85
2021/10/03 05:13:46;;;;;;;;;;;14.70;99.90;;;;;;5009364;28;19958;-86
2021/10/03 05:16:14;;;;;;;;;;;14.60;99.90;;;;;;5009393;28;19944;-86
2021/10/03 05:18:40;;;;;;;;;;;14.60;99.90;;;;;;5004165;28;19966;-86
2021/10/03 05:21:07;;;;;;;;;;;14.70;99.90;;;;;;5002510;28;19946;-84
2021/10/03 05:23:34;;;;;;;;;;;14.70;99.90;;;;;;5003165;28;19960;-86
2021/10/03 05:26:00;;;;;;;;;;;14.70;99.90;;;;;;5002598;28;20318;-85
2021/10/03 05:28:27;;;;;;;;;;;14.70;99.90;;;;;;5003433;28;19967;-86
2021/10/03 05:30:54;;;;;;;;;;;14.70;99.90;;;;;;5004829;28;19946;-86
2021/10/03 05:33:21;;;;;;;;;;;14.70;99.90;;;;;;5004240;28;20322;-87
2021/10/03 05:35:48;;;;;;;;;;;14.70;99.90;;;;;;5002286;28;19973;-87
2021/10/03 05:38:14;;;;;;;;;;;14.70;99.90;;;;;;5004069;28;19970;-87
2021/10/03 05:40:41;;;;;;;;;;;14.70;99.90;;;;;;5001750;28;19970;-85
2021/10/03 05:43:07;;;;;;;;;;;14.70;99.90;;;;;;5000719;28;19947;-87
2021/10/03 05:45:34;;;;;;;;;;;14.70;99.90;;;;;;5000183;28;19948;-87
2021/10/03 05:48:00;;;;;;;;;;;14.70;99.90;;;;;;5000172;28;19970;-87
2021/10/03 05:50:28;;;;;;;;;;;14.70;99.90;;;;;;5000482;28;19950;-87
2021/10/03 05:52:55;;;;;;;;;;;14.80;99.90;;;;;;4999390;28;20328;-87
2021/10/03 05:55:21;;;;;;;;;;;14.70;99.90;;;;;;4999292;28;19949;-87
2021/10/03 05:57:48;;;;;;;;;;;14.70;99.90;;;;;;4999575;28;20413;-87
2021/10/03 06:00:15;;;;;;;;;;;14.70;99.90;;;;;;4998487;28;19968;-87
2021/10/03 06:02:41;;;;;;;;;;;14.70;99.90;;;;;;5002130;28;19949;-87
2021/10/03 06:05:08;;;;;;;;;;;14.70;99.90;;;;;;5010751;28;19956;-90
2021/10/03 06:07:36;;;;;;;;;;;14.70;99.90;;;;;;5009676;28;19948;-87
2021/10/03 06:10:03;;;;;;;;;;;14.70;99.90;;;;;;5006733;28;20023;-87
2021/10/03 06:12:30;;;;;;;;;;;14.70;99.90;;;;;;5002997;28;19977;-87
2021/10/03 06:14:56;;;;;;;;;;;14.70;99.90;;;;;;5008419;28;19995;-86
2021/10/03 06:17:23;;;;;;;;;;;14.80;99.90;;;;;;5012112;28;19957;-87
2021/10/03 06:19:49;;;;;;;;;;;14.70;99.90;;;;;;5005117;28;20364;-87
2021/10/03 06:22:20;;;;;;;;;;;14.70;99.90;;;;;;5006523;28;19947;-87
2021/10/03 06:24:48;;;;;;;;;;;14.70;99.90;;;;;;5009441;28;19958;-87
2021/10/03 06:27:15;;;;;;;;;;;14.70;99.90;;;;;;5007352;28;19962;-87
2021/10/03 06:29:45;;;;;;;;;;;14.80;99.90;;;;;;5003197;28;20470;-84
2021/10/03 06:32:11;;;;;;;;;;;14.80;99.90;;;;;;5001205;28;19957;-81
2021/10/03 06:34:38;;;;;;;;;;;14.90;99.90;;;;;;4999694;28;19949;-84
2021/10/03 06:37:04;;;;;;;;;;;15.10;99.90;;;;;;5001119;28;19948;-81
2021/10/03 06:39:31;;;;;;;;;;;15.10;99.90;;;;;;4997626;28;19994;-81
2021/10/03 06:41:59;;;;;;;;;;;15.10;99.90;;;;;;4995487;28;20002;-81
2021/10/03 06:44:25;;;;;;;;;;;15.20;99.90;;;;;;4995138;28;20012;-80
2021/10/03 06:46:52;;;;;;;;;;;15.20;99.90;;;;;;4995557;28;19994;-81
2021/10/03 06:49:18;;;;;;;;;;;15.20;99.90;;;;;;4995143;28;20009;-80
2021/10/03 06:51:44;;;;;;;;;;;15.30;99.90;;;;;;4995225;28;19996;-81
2021/10/03 06:54:11;;;;;;;;;;;15.20;99.90;;;;;;4996910;28;20001;-82
2021/10/03 06:56:38;;;;;;;;;;;15.20;99.90;;;;;;5001593;28;20322;-81
2021/10/03 06:59:06;;;;;;;;;;;15.20;99.90;;;;;;5000020;28;19987;-81
2021/10/03 07:01:32;;;;;;;;;;;15.20;99.90;;;;;;4994907;28;19995;-82
2021/10/03 07:03:58;;;;;;;;;;;15.30;99.90;;;;;;4997756;28;19965;-83
2021/10/03 07:06:25;;;;;;;;;;;15.30;99.90;;;;;;4998159;28;19957;-82
2021/10/03 07:08:51;;;;;;;;;;;15.40;99.90;;;;;;4998691;28;20508;-79
2021/10/03 07:11:18;;;;;;;;;;;15.40;99.90;;;;;;4997396;28;20002;-82
2021/10/03 07:13:44;;;;;;;;;;;15.30;99.90;;;;;;4995582;28;20004;-81
2021/10/03 07:16:12;;;;;;;;;;;15.30;99.90;;;;;;4995336;28;19958;-82
2021/10/03 07:18:38;;;;;;;;;;;15.40;99.90;;;;;;4997003;28;20005;-79
2021/10/03 07:21:05;;;;;;;;;;;15.50;99.90;;;;;;4996142;28;19949;-82
2021/10/03 07:23:32;;;;;;;;;;;15.40;99.90;;;;;;5000175;28;20437;-82
2021/10/03 07:25:59;;;;;;;;;;;15.40;99.90;;;;;;5003429;28;19950;-82
2021/10/03 07:28:25;;;;;;;;;;;15.60;99.90;;;;;;5003501;28;19999;-82
2021/10/03 07:30:52;;;;;;;;;;;15.60;99.90;;;;;;5002275;28;19971;-80
2021/10/03 07:33:20;;;;;;;;;;;15.60;99.90;;;;;;4997046;28;19966;-82
2021/10/03 07:35:46;;;;;;;;;;;15.60;99.90;;;;;;4995532;28;19994;-83
2021/10/03 07:38:13;;;;;;;;;;;15.50;99.90;;;;;;4995683;28;20073;-81
2021/10/03 07:40:40;;;;;;;;;;;15.50;99.90;;;;;;4995478;28;19959;-81
2021/10/03 07:43:06;;;;;;;;;;;15.50;99.90;;;;;;4995708;28;20399;-81
2021/10/03 07:45:32;;;;;;;;;;;15.60;99.90;;;;;;4999039;28;19993;-81
2021/10/03 07:47:59;;;;;;;;;;;15.60;99.90;;;;;;4998079;28;19991;-82
2021/10/03 07:50:27;;;;;;;;;;;15.70;99.90;;;;;;4997620;28;20367;-82
2021/10/03 07:52:53;;;;;;;;;;;15.80;99.90;;;;;;4998025;28;20492;-82
2021/10/03 07:55:20;;;;;;;;;;;15.80;99.90;;;;;;4997805;28;19987;-83
2021/10/03 07:57:46;;;;;;;;;;;15.70;99.90;;;;;;4998254;28;19953;-83
2021/10/03 08:00:13;;;;;;;;;;;15.70;99.90;;;;;;4998554;28;19967;-82
2021/10/03 08:02:40;;;;;;;;;;;15.80;99.90;;;;;;4999770;28;20325;-81
2021/10/03 08:05:07;;;;;;;;;;;15.80;99.90;;;;;;4997899;28;19954;-82
2021/10/03 08:07:34;;;;;;;;;;;15.80;99.90;;;;;;4997730;28;19949;-81
2021/10/03 08:10:01;;;;;;;;;;;15.80;99.90;;;;;;4999330;28;19967;-83
2021/10/03 08:12:28;;;;;;;;;;;15.80;99.90;;;;;;5002762;28;19946;-81
2021/10/03 08:14:55;;;;;;;;;;;15.80;99.90;;;;;;5011551;28;19964;-80
2021/10/03 08:17:21;;;;;;;;;;;15.80;99.90;;;;;;5011228;28;19983;-80
2021/10/03 08:19:48;;;;;;;;;;;15.80;99.90;;;;;;5005256;28;19962;-79
2021/10/03 08:22:14;;;;;;;;;;;15.90;99.90;;;;;;5005515;28;20057;-78
2021/10/03 08:24:42;;;;;;;;;;;15.90;99.90;;;;;;5007620;28;19954;-81
2021/10/03 08:27:08;;;;;;;;;;;15.90;99.90;;;;;;5002907;28;19960;-81
2021/10/03 08:29:35;;;;;;;;;;;15.90;99.90;;;;;;5004039;28;19968;-81
2021/10/03 08:32:01;;;;;;;;;;;16.00;99.90;;;;;;5011870;28;20311;-79
2021/10/03 08:34:28;;;;;;;;;;;16.00;99.90;;;;;;5011071;28;19969;-79
2021/10/03 08:36:54;;;;;;;;;;;16.00;99.90;;;;;;5010252;28;19970;-80
2021/10/03 08:39:21;;;;;;;;;;;16.00;99.90;;;;;;5014203;28;19970;-80
2021/10/03 08:41:49;;;;;;;;;;;16.00;99.90;;;;;;5012615;28;19947;-79
2021/10/03 08:44:15;;;;;;;;;;;16.10;99.90;;;;;;5017278;28;19932;-81
2021/10/03 08:46:42;;;;;;;;;;;16.20;99.90;;;;;;5017530;28;19941;-82
2021/10/03 08:49:09;;;;;;;;;;;16.30;99.90;;;;;;5013622;28;20015;-81
2021/10/03 08:51:36;;;;;;;;;;;16.40;99.90;;;;;;5007957;28;19949;-83
2021/10/03 08:54:02;;;;;;;;;;;16.30;99.90;;;;;;5003027;28;19958;-81
2021/10/03 08:56:29;;;;;;;;;;;16.40;99.90;;;;;;5001113;28;19945;-83
2021/10/03 08:58:57;;;;;;;;;;;16.50;99.90;;;;;;5001394;28;19970;-83
2021/10/03 09:01:23;;;;;;;;;;;16.50;99.90;;;;;;5001600;28;19950;-82
2021/10/03 09:03:55;;;;;;;;;;;16.60;99.90;;;;;;5003693;28;19946;-82
2021/10/03 09:06:22;;;;;;;;;;;16.70;99.90;;;;;;5004804;28;19945;-84
2021/10/03 09:08:52;;;;;;;;;;;16.80;99.90;;;;;;5003639;28;19964;-86
2021/10/03 09:11:19;;;;;;;;;;;16.70;99.90;;;;;;5004422;28;20033;-85
2021/10/03 09:13:47;;;;;;;;;;;16.80;99.90;;;;;;5000415;28;20458;-82
2021/10/03 09:16:16;;;;;;;;;;;16.90;99.90;;;;;;5000179;28;19973;-83
2021/10/03 09:18:44;;;;;;;;;;;16.90;99.90;;;;;;5001880;28;20009;-82
2021/10/03 09:21:12;;;;;;;;;;;16.90;99.90;;;;;;5001218;28;19951;-83
2021/10/03 09:23:39;;;;;;;;;;;17.00;99.90;;;;;;5001421;28;20031;-83
2021/10/03 09:26:11;;;;;;;;;;;17.00;99.90;;;;;;4999931;28;19957;-82
2021/10/03 09:28:37;;;;;;;;;;;17.10;99.90;;;;;;5007071;28;19965;-81
2021/10/03 09:31:08;;;;;;;;;;;17.10;99.90;;;;;;5017099;28;19953;-87
2021/10/03 09:33:40;;;;;;;;;;;17.10;99.90;;;;;;5018072;28;19960;-85
2021/10/03 09:36:06;;;;;;;;;;;17.10;99.90;;;;;;5018414;28;19939;-86
2021/10/03 09:38:43;;;;;;;;;;;17.10;99.90;;;;;;5018403;28;19949;-88
2021/10/03 09:41:10;;;;;;;;;;;17.10;99.90;;;;;;5017966;28;19934;-85
2021/10/03 09:43:40;;;;;;;;;;;17.10;99.90;;;;;;5013853;28;20023;-85
2021/10/03 09:46:07;;;;;;;;;;;17.20;99.90;;;;;;5003034;28;19949;-86
2021/10/03 09:48:50;;;;;;;;;;;17.20;99.90;;;;;;5000724;28;19962;-86
2021/10/03 09:51:17;;;;;;;;;;;17.30;99.90;;;;;;5002387;28;19948;-86
2021/10/03 09:53:45;;;;;;;;;;;17.40;99.90;;;;;;5000849;28;19971;-86
2021/10/03 09:56:12;;;;;;;;;;;17.50;99.90;;;;;;5002988;28;20000;-86
2021/10/03 10:01:48;;;;;;;;;;;;;;;;;;;;;
2021/10/03 10:04:55;;;;;;;;;;;18.50;99.90;;;;;;5009982;28;19952;-88
2021/10/03 10:16:56;;;;;;;;;;;18.20;99.90;;;;;;4928452;28;19955;-88
2021/10/03 10:28:43;;;;;;;;;;;18.10;99.90;;;;;;4903896;29;19992;-88
2021/10/03 10:34:24;;;;;;;;;;;18.60;99.90;;;;;;5010130;23;19990;-85
2021/10/03 10:36:52;;;;;;;;;;;18.90;99.90;;;;;;5015009;28;19997;-85
2021/10/03 10:39:21;;;;;;;;;;;18.70;99.90;;;;;;5016411;28;19950;-85
2021/10/03 10:41:48;;;;;;;;;;;18.80;99.90;;;;;;5014609;28;19934;-85
2021/10/03 10:44:27;;;;;;;;;;;18.90;99.90;;;;;;5014369;28;19959;-85
2021/10/03 10:46:54;;;;;;;;;;;19.00;99.90;;;;;;5014458;28;19960;-85
2021/10/03 10:49:30;;;;;;;;;;;19.00;99.90;;;;;;5012325;28;19969;-85
2021/10/03 10:52:14;;;;;;;;;;;19.10;99.90;;;;;;5010963;28;19980;-86
2021/10/03 10:54:41;;;;;;;;;;;19.20;99.90;;;;;;5013576;28;20037;-86
2021/10/03 10:57:08;;;;;;;;;;;19.20;99.90;;;;;;5016891;28;19934;-85
2021/10/03 11:00:04;;;;;;;;;;;19.30;99.90;;;;;;5011401;28;19969;-85
2021/10/03 11:02:48;;;;;;;;;;;19.30;99.90;;;;;;5010303;28;19952;-85
2021/10/03 11:05:34;;;;;;;;;;;19.40;99.90;;;;;;5005012;28;19962;-85
2021/10/03 11:08:09;;;;;;;;;;;19.50;99.90;;;;;;5007574;28;19982;-86
2021/10/03 11:10:50;;;;;;;;;;;19.60;99.90;;;;;;5013651;28;19958;-86
2021/10/03 11:13:36;;;;;;;;;;;18.80;99.90;;;;;;5019102;28;19940;-86
2021/10/03 11:16:18;;;;;;;;;;;19.80;99.90;;;;;;5016847;28;19977;-87
2021/10/03 11:18:48;;;;;;;;;;;19.90;99.90;;;;;;5016610;28;19930;-86
2021/10/03 11:21:19;;;;;;;;;;;19.80;99.90;;;;;;5016695;28;19925;-86
2021/10/03 11:23:47;;;;;;;;;;;20.00;99.90;;;;;;5015607;28;19964;-86
2021/10/03 11:26:14;;;;;;;;;;;20.00;99.90;;;;;;5015647;28;20046;-86
2021/10/03 11:28:58;;;;;;;;;;;20.20;99.90;;;;;;5015113;28;19941;-86
2021/10/03 11:31:37;;;;;;;;;;;20.30;99.90;;;;;;5015291;28;21355;-84
2021/10/03 11:34:04;;;;;;;;;;;20.40;99.90;;;;;;5013640;28;20040;-86
2021/10/03 11:36:31;;;;;;;;;;;22.50;99.90;;;;;;5009291;28;19942;-84
2021/10/03 11:39:00;;;;;;;;;;;20.40;99.90;;;;;;5008290;28;19995;-85
2021/10/03 11:41:26;;;;;;;;;;;20.40;99.90;;;;;;5007948;28;20366;-86
2021/10/03 11:43:53;;;;;;;;;;;20.50;99.90;;;;;;5008050;28;19968;-86
2021/10/03 11:46:19;;;;;;;;;;;20.40;99.90;;;;;;5006403;28;19984;-84
2021/10/03 11:48:50;;;;;;;;;;;20.40;99.90;;;;;;5005989;28;20354;-83
2021/10/03 11:51:16;;;;;;;;;;;20.50;99.90;;;;;;5010973;28;19952;-83
2021/10/03 11:53:47;;;;;;;;;;;20.50;99.90;;;;;;5010480;28;19963;-83
2021/10/03 11:56:17;;;;;;;;;;;20.60;99.90;;;;;;5009313;28;19949;-83
2021/10/03 11:58:44;;;;;;;;;;;20.60;99.90;;;;;;5009099;28;19961;-85
2021/10/03 12:01:12;;;;;;;;;;;20.60;99.90;;;;;;5003833;28;20043;-84
2021/10/03 12:03:46;;;;;;;;;;;20.60;99.90;;;;;;5003115;28;19972;-85
2021/10/03 12:06:17;;;;;;;;;;;20.70;99.90;;;;;;5003255;28;19951;-85
2021/10/03 12:08:44;;;;;;;;;;;20.70;99.90;;;;;;5000467;28;19946;-85
2021/10/03 12:11:11;;;;;;;;;;;20.70;99.90;;;;;;5000930;28;19949;-85
2021/10/03 12:13:38;;;;;;;;;;;20.70;99.90;;;;;;4999711;28;19948;-86
2021/10/03 12:16:16;;;;;;;;;;;20.80;99.90;;;;;;5001013;28;19969;-85
2021/10/03 12:18:47;;;;;;;;;;;20.80;99.90;;;;;;5001635;28;19951;-86
2021/10/03 12:21:15;;;;;;;;;;;20.80;99.90;;;;;;5003057;28;19946;-84
2021/10/03 12:23:46;;;;;;;;;;;20.80;99.90;;;;;;5002092;28;20384;-84
2021/10/03 12:26:13;;;;;;;;;;;20.90;99.90;;;;;;5001276;28;19948;-84
2021/10/03 12:28:51;;;;;;;;;;;20.90;99.90;;;;;;5002027;28;20297;-84
2021/10/03 12:31:32;;;;;;;;;;;20.90;99.90;;;;;;5004206;28;19995;-84
2021/10/03 12:33:59;;;;;;;;;;;20.90;99.90;;;;;;5005066;28;19967;-84
2021/10/03 12:36:25;;;;;;;;;;;20.90;99.90;;;;;;5004331;28;19943;-84
2021/10/03 12:38:52;;;;;;;;;;;21.00;99.90;;;;;;5003459;28;20002;-85
2021/10/03 12:41:18;;;;;;;;;;;21.00;99.90;;;;;;5006571;28;19951;-86
2021/10/03 12:43:48;;;;;;;;;;;21.10;99.90;;;;;;5004188;28;19964;-85
2021/10/03 12:46:15;;;;;;;;;;;21.10;99.90;;;;;;5003972;28;20322;-84
2021/10/03 12:48:45;;;;;;;;;;;21.10;99.90;;;;;;5004278;28;19945;-84
2021/10/03 12:51:11;;;;;;;;;;;21.20;99.90;;;;;;5004765;28;20004;-84
2021/10/03 12:53:38;;;;;;;;;;;21.10;99.90;;;;;;5003823;28;19946;-83
2021/10/03 12:56:05;;;;;;;;;;;21.10;99.90;;;;;;5004445;28;19954;-83
2021/10/03 12:58:31;;;;;;;;;;;21.10;99.90;;;;;;5003482;28;20050;-83
2021/10/03 13:00:57;;;;;;;;;;;21.20;99.90;;;;;;5010161;28;19947;-83
2021/10/03 13:03:25;;;;;;;;;;;21.00;99.90;;;;;;5015593;28;19945;-82
2021/10/03 13:05:52;;;;;;;;;;;21.00;99.90;;;;;;5014649;28;19945;-83
2021/10/03 13:08:18;;;;;;;;;;;21.00;99.90;;;;;;5015339;28;19946;-83
2021/10/03 13:10:45;;;;;;;;;;;21.00;99.90;;;;;;5014274;28;19950;-84
2021/10/03 13:13:11;;;;;;;;;;;20.90;99.90;;;;;;5005939;28;19966;-84
2021/10/03 13:15:38;;;;;;;;;;;20.90;99.90;;;;;;5006333;28;19986;-84
2021/10/03 13:18:04;;;;;;;;;;;21.00;99.90;;;;;;5005926;28;19949;-84
2021/10/03 13:20:32;;;;;;;;;;;21.00;99.90;;;;;;5012204;28;19970;-84
2021/10/03 13:22:58;;;;;;;;;;;20.90;99.90;;;;;;5013452;28;19949;-84
2021/10/03 13:25:25;;;;;;;;;;;20.90;99.90;;;;;;5013316;28;19992;-84
2021/10/03 13:27:51;;;;;;;;;;;20.90;99.90;;;;;;5013399;28;19930;-84
2021/10/03 13:30:18;;;;;;;;;;;20.90;99.90;;;;;;5011142;28;19966;-84
2021/10/03 13:32:45;;;;;;;;;;;20.90;99.90;;;;;;5006639;28;19982;-83
2021/10/03 13:35:11;;;;;;;;;;;21.00;99.90;;;;;;5006560;28;19966;-84
2021/10/03 13:37:39;;;;;;;;;;;21.10;99.90;;;;;;5001604;28;19944;-84
2021/10/03 13:40:06;;;;;;;;;;;21.20;99.90;;;;;;5003048;28;19944;-84
2021/10/03 13:42:33;;;;;;;;;;;21.30;99.90;;;;;;5009717;28;19947;-84
2021/10/03 13:44:59;;;;;;;;;;;21.40;99.90;;;;;;5014789;28;19962;-84
2021/10/03 13:47:26;;;;;;;;;;;21.50;99.90;;;;;;5015003;28;19931;-84
2021/10/03 13:49:53;;;;;;;;;;;21.60;99.90;;;;;;5012964;28;19955;-84
2021/10/03 13:52:19;;;;;;;;;;;21.50;99.90;;;;;;5010401;28;19950;-84
2021/10/03 13:54:47;;;;;;;;;;;21.60;99.90;;;;;;5012047;28;20100;-84
2021/10/03 13:57:13;;;;;;;;;;;21.50;99.90;;;;;;5010385;28;19952;-84
2021/10/03 13:59:40;;;;;;;;;;;21.50;99.90;;;;;;5007582;28;20342;-83
2021/10/03 14:02:06;;;;;;;;;;;21.40;99.90;;;;;;5004903;28;19968;-84
2021/10/03 14:04:33;;;;;;;;;;;21.40;99.90;;;;;;5003869;28;19989;-84
2021/10/03 14:06:59;;;;;;;;;;;21.40;99.90;;;;;;5003550;28;19946;-84
2021/10/03 14:09:26;;;;;;;;;;;21.40;99.90;;;;;;5005534;28;20037;-84
2021/10/03 14:11:54;;;;;;;;;;;21.30;99.90;;;;;;5007344;28;19953;-83
2021/10/03 14:14:22;;;;;;;;;;;21.30;99.90;;;;;;5012568;28;19985;-83
2021/10/03 14:16:51;;;;;;;;;;;21.30;99.90;;;;;;5013118;28;19960;-83
2021/10/03 14:19:20;;;;;;;;;;;21.20;99.90;;;;;;5012525;28;19936;-84
2021/10/03 14:21:47;;;;;;;;;;;21.20;99.90;;;;;;5010350;28;19946;-84
2021/10/03 14:24:14;;;;;;;;;;;21.10;99.90;;;;;;5006973;28;19965;-83
2021/10/03 14:26:41;;;;;;;;;;;21.20;99.90;;;;;;5006903;28;19956;-84
2021/10/03 14:29:09;;;;;;;;;;;21.10;99.90;;;;;;5004314;28;19949;-84
2021/10/03 14:31:35;;;;;;;;;;;21.10;99.90;;;;;;5001070;28;20400;-84
2021/10/03 14:34:01;;;;;;;;;;;21.10;99.90;;;;;;5002660;28;19962;-84
2021/10/03 14:36:28;;;;;;;;;;;21.10;99.90;;;;;;5005635;28;19962;-84
2021/10/03 14:38:54;;;;;;;;;;;21.10;99.90;;;;;;5004705;28;19969;-85
2021/10/03 14:41:21;;;;;;;;;;;21.10;99.90;;;;;;5005268;28;19968;-84
2021/10/03 14:43:50;;;;;;;;;;;21.10;99.90;;;;;;5003895;28;19926;-84
2021/10/03 14:46:18;;;;;;;;;;;21.10;99.90;;;;;;5002552;28;19937;-83
2021/10/03 14:48:44;;;;;;;;;;;21.00;99.90;;;;;;5002319;28;19950;-84
2021/10/03 14:51:12;;;;;;;;;;;21.00;99.90;;;;;;5000668;28;19946;-85
2021/10/03 14:53:38;;;;;;;;;;;21.00;99.90;;;;;;4997786;28;19943;-86
2021/10/03 14:56:05;;;;;;;;;;;20.90;99.90;;;;;;4999934;28;19968;-86
2021/10/03 14:58:31;;;;;;;;;;;20.90;99.90;;;;;;4997922;28;19945;-86
2021/10/03 15:00:58;;;;;;;;;;;20.90;99.90;;;;;;4998553;28;20002;-86
2021/10/03 15:03:26;;;;;;;;;;;20.90;99.90;;;;;;5000540;28;19949;-87
2021/10/03 15:05:53;;;;;;;;;;;20.90;99.90;;;;;;4998013;28;19944;-87
2021/10/03 15:08:19;;;;;;;;;;;20.90;99.90;;;;;;4998707;28;19977;-85
2021/10/03 15:10:46;;;;;;;;;;;20.90;99.90;;;;;;4998759;28;19946;-85
2021/10/03 15:13:12;;;;;;;;;;;20.80;99.90;;;;;;5011822;28;19944;-85
2021/10/03 15:15:39;;;;;;;;;;;20.80;99.90;;;;;;5005464;28;20013;-85
2021/10/03 15:18:05;;;;;;;;;;;20.80;99.90;;;;;;5001230;28;19952;-85
2021/10/03 15:20:33;;;;;;;;;;;20.80;99.90;;;;;;5003479;28;19986;-87
2021/10/03 15:22:59;;;;;;;;;;;20.80;99.90;;;;;;5001006;28;20360;-89
2021/10/03 15:25:26;;;;;;;;;;;20.70;99.90;;;;;;5002241;28;19971;-86
2021/10/03 15:27:52;;;;;;;;;;;20.70;99.90;;;;;;4997043;28;19949;-88
2021/10/03 15:30:21;;;;;;;;;;;20.60;99.90;;;;;;4997589;28;19947;-86
2021/10/03 15:32:48;;;;;;;;;;;20.60;99.90;;;;;;4997384;28;20391;-87
2021/10/03 15:35:17;;;;;;;;;;;20.60;99.90;;;;;;4997064;28;19964;-83
2021/10/03 15:37:45;;;;;;;;;;;20.60;99.90;;;;;;5002277;28;19950;-88
2021/10/03 15:40:13;;;;;;;;;;;20.60;99.90;;;;;;5006669;28;19948;-86
2021/10/03 15:42:39;;;;;;;;;;;20.60;99.90;;;;;;5002640;28;19948;-88
2021/10/03 15:45:06;;;;;;;;;;;20.60;99.90;;;;;;5001558;28;19963;-87
2021/10/03 15:47:33;;;;;;;;;;;20.60;99.90;;;;;;5004552;28;19947;-89
2021/10/03 15:50:00;;;;;;;;;;;20.60;99.90;;;;;;5015086;28;19970;-88
2021/10/03 15:52:27;;;;;;;;;;;20.50;99.90;;;;;;5015555;28;19934;-86
2021/10/03 15:54:55;;;;;;;;;;;20.50;99.90;;;;;;5015652;28;19951;-89
2021/10/03 15:57:22;;;;;;;;;;;20.00;99.90;;;;;;5015463;28;19953;-87
2021/10/03 15:59:48;;;;;;;;;;;20.40;99.90;;;;;;5011203;28;19957;-87
2021/10/03 16:02:15;;;;;;;;;;;20.40;99.90;;;;;;5005223;28;19959;-85
2021/10/03 16:04:41;;;;;;;;;;;20.30;99.90;;;;;;5008366;28;20046;-87
2021/10/03 16:07:08;;;;;;;;;;;20.30;99.90;;;;;;5005862;28;19993;-85
2021/10/03 16:09:34;;;;;;;;;;;20.30;99.90;;;;;;5005047;28;19950;-86
2021/10/03 16:12:03;;;;;;;;;;;20.20;99.90;;;;;;5001302;28;19946;-87
2021/10/03 16:14:30;;;;;;;;;;;20.20;99.90;;;;;;5012088;28;20013;-85